Time;durP1;ratioP1;P1;durP2;ratioP2;P2;SDS_P1;SDS_P2;PMS_P1;PMS_P2;Temp;Humidity;BMP_temperature;BMP_pressure;BME280_temperature;BME280_humidity;BME280_pressure;Samples;Min_cycle;Max_cycle;Signal;HPM_P1;HPM_P2
2023/06/01 00:02:22;;;;;;;2.05;0.88;;;;;;;17.40;68.80;101398.47;4951533;28;20129;-51
2023/06/01 00:04:49;;;;;;;1.75;0.88;;;;;;;17.39;69.00;101398.84;4951462;29;20043;-50
2023/06/01 00:07:15;;;;;;;1.10;0.60;;;;;;;17.32;69.34;101398.81;4950363;28;20045;-53
2023/06/01 00:09:41;;;;;;;3.55;1.10;;;;;;;17.50;68.82;101395.03;4946607;29;20039;-50
2023/06/01 00:12:07;;;;;;;1.10;0.82;;;;;;;17.47;67.99;101390.34;4950849;28;20585;-54
2023/06/01 00:14:33;;;;;;;5.30;0.63;;;;;;;17.38;68.78;101398.06;4944823;28;20047;-51
2023/06/01 00:16:58;;;;;;;2.05;0.90;;;;;;;17.25;68.93;101396.84;4948719;28;20102;-54
2023/06/01 00:19:25;;;;;;;1.50;1.02;;;;;;;17.24;69.25;101391.78;4950614;28;20054;-52
2023/06/01 00:21:53;;;;;;;1.73;1.10;;;;;;;17.24;68.74;101395.28;4948679;29;20039;-51
2023/06/01 00:24:20;;;;;;;1.10;0.95;;;;;;;17.12;69.46;101392.88;4945979;28;20058;-57
2023/06/01 00:26:46;;;;;;;2.90;1.40;;;;;;;17.16;69.89;101393.69;4950535;28;20035;-54
2023/06/01 00:29:12;;;;;;;2.90;1.17;;;;;;;17.17;70.10;101392.50;4950090;29;20053;-50
2023/06/01 00:31:38;;;;;;;1.10;0.93;;;;;;;17.14;70.34;101390.56;4926013;28;20143;-55
2023/06/01 00:34:03;;;;;;;0.85;0.65;;;;;;;17.13;70.33;101384.34;4948740;28;20039;-54
2023/06/01 00:36:29;;;;;;;3.08;1.50;;;;;;;17.13;70.63;101386.25;4970310;28;21640;-52
2023/06/01 00:39:15;;;;;;;5.30;1.35;;;;;;;17.13;70.91;101397.16;5014231;28;20383;-51
2023/06/01 00:41:40;;;;;;;2.17;0.85;;;;;;;17.31;69.56;101391.81;4941995;29;20139;-55
2023/06/01 00:44:06;;;;;;;1.83;1.25;;;;;;;17.17;70.07;101384.34;4943113;29;20122;-55
2023/06/01 00:46:32;;;;;;;2.25;1.05;;;;;;;17.07;71.57;101393.25;4930080;28;20415;-52
2023/06/01 00:48:58;;;;;;;1.65;1.05;;;;;;;17.15;70.54;101395.63;4945947;28;20027;-52
2023/06/01 00:51:24;;;;;;;0.98;0.80;;;;;;;17.18;70.48;101388.66;4949379;28;20050;-55
2023/06/01 00:53:50;;;;;;;1.40;1.10;;;;;;;17.22;70.26;101383.22;4942812;28;20039;-52
2023/06/01 00:56:17;;;;;;;1.45;0.90;;;;;;;17.13;70.75;101389.00;4943160;28;20565;-53
2023/06/01 00:58:43;;;;;;;2.33;1.13;;;;;;;17.11;70.70;101389.38;4932453;29;20411;-53
2023/06/01 01:01:18;;;;;;;2.08;0.60;;;;;;;17.06;71.06;101392.47;4927522;29;20034;-52
2023/06/01 01:03:49;;;;;;;6.63;0.68;;;;;;;17.05;70.96;101387.41;4948757;29;20110;-55
2023/06/01 01:06:36;;;;;;;2.50;1.10;;;;;;;17.26;70.04;101389.47;4940361;28;20069;-52
2023/06/01 01:09:13;;;;;;;1.40;1.00;;;;;;;17.19;70.42;101386.72;4944928;29;20039;-51
2023/06/01 01:11:43;;;;;;;1.67;1.05;;;;;;;17.07;70.85;101387.81;4948003;29;20032;-50
2023/06/01 01:14:20;;;;;;;2.05;1.10;;;;;;;17.09;70.34;101388.97;4947729;29;20031;-52
2023/06/01 01:16:48;;;;;;;1.15;1.05;;;;;;;16.96;70.54;101382.28;4946067;28;20039;-53
2023/06/01 01:19:35;;;;;;;1.95;1.35;;;;;;;17.05;70.90;101373.81;5000578;28;20095;-53
2023/06/01 01:22:38;;;;;;;1.73;1.05;;;;;;;17.18;69.58;101377.75;5021445;28;20674;-50
2023/06/01 01:25:05;;;;;;;2.55;1.10;;;;;;;17.13;70.11;101375.38;5007373;28;20025;-50
2023/06/01 01:27:43;;;;;;;4.82;1.13;;;;;;;17.18;69.62;101372.31;5022605;28;20025;-53
2023/06/01 01:30:10;;;;;;;1.80;1.00;;;;;;;17.08;70.80;101381.97;5018320;28;20030;-52
2023/06/01 01:32:37;;;;;;;1.63;1.20;;;;;;;16.99;70.85;101380.75;5021460;28;20044;-47
2023/06/01 01:35:05;;;;;;;2.47;1.38;;;;;;;16.95;71.31;101377.25;5014639;28;20034;-54
2023/06/01 01:37:33;;;;;;;1.33;0.93;;;;;;;16.93;71.51;101380.34;5020580;28;20108;-51
2023/06/01 01:39:58;;;;;;;6.50;1.67;;;;;;;16.98;71.83;101377.25;5027349;28;20049;-54
2023/06/01 01:42:24;;;;;;;2.17;1.30;;;;;;;17.22;70.49;101377.75;5020725;28;20747;-54
2023/06/01 01:44:50;;;;;;;5.40;2.08;;;;;;;17.12;71.33;101371.09;5017266;28;20037;-54
2023/06/01 01:47:25;;;;;;;5.18;1.33;;;;;;;17.06;71.00;101369.91;5011492;28;20029;-51
2023/06/01 01:49:55;;;;;;;1.58;1.23;;;;;;;17.15;70.66;101370.34;5025375;28;20029;-49
2023/06/01 01:52:25;;;;;;;;;;;;;;;17.09;70.83;101369.16;5016952;28;20044;-50
2023/06/01 01:54:51;;;;;;;3.90;1.30;;;;;;;17.10;70.88;101359.81;5028459;28;19919;-55
2023/06/01 01:57:17;;;;;;;3.50;1.52;;;;;;;16.99;70.91;101365.19;5023070;28;20677;-50
2023/06/01 01:59:48;;;;;;;2.97;1.33;;;;;;;16.98;71.47;101357.41;5015166;28;20411;-54
2023/06/01 02:02:14;;;;;;;4.18;1.85;;;;;;;16.95;72.24;101364.41;5019180;28;20506;-50
2023/06/01 02:04:41;;;;;;;2.33;1.45;;;;;;;17.12;70.81;101361.00;5013280;28;20094;-51
2023/06/01 02:07:08;;;;;;;1.27;1.00;;;;;;;17.13;69.64;101359.03;5022288;28;20121;-50
2023/06/01 02:09:35;;;;;;;2.25;1.15;;;;;;;17.08;69.66;101362.13;5018418;28;20393;-54
2023/06/01 02:12:01;;;;;;;1.77;1.02;;;;;;;17.04;69.95;101361.34;5023301;28;20052;-49
2023/06/01 02:14:28;;;;;;;1.77;1.20;;;;;;;17.08;68.92;101351.25;5017820;28;20030;-56
2023/06/01 02:16:54;;;;;;;2.60;1.08;;;;;;;17.09;68.13;101348.16;5032826;28;20034;-50
2023/06/01 02:19:20;;;;;;;1.63;1.10;;;;;;;16.85;69.11;101351.53;5021578;28;20037;-53
2023/06/01 02:21:46;;;;;;;2.55;1.38;;;;;;;16.95;69.42;101350.03;5024320;28;20040;-53
2023/06/01 02:24:12;;;;;;;1.77;1.20;;;;;;;16.91;69.08;101347.28;5027874;28;20155;-52
2023/06/01 02:26:38;;;;;;;1.63;0.90;;;;;;;16.85;69.30;101339.84;5016483;28;20107;-53
2023/06/01 02:29:05;;;;;;;5.43;1.05;;;;;;;16.87;68.96;101343.75;5018812;28;20092;-50
2023/06/01 02:31:35;;;;;;;0.95;0.82;;;;;;;16.78;70.18;101348.75;5024827;28;20110;-52
2023/06/01 02:34:01;;;;;;;1.00;1.00;;;;;;;16.80;70.08;101340.22;5027235;28;20040;-50
2023/06/01 02:36:28;;;;;;;1.95;1.17;;;;;;;16.78;69.87;101342.53;5015036;28;20065;-54
2023/06/01 02:38:58;;;;;;;1.35;1.05;;;;;;;16.65;69.80;101352.16;5014988;28;20408;-51
2023/06/01 02:41:25;;;;;;;3.00;1.40;;;;;;;16.81;68.92;101345.28;5013938;28;20044;-52
2023/06/01 02:43:51;;;;;;;0.80;0.75;;;;;;;16.77;68.49;101341.75;5018635;28;20032;-55
2023/06/01 02:46:18;;;;;;;1.17;0.90;;;;;;;16.71;68.20;101347.91;5010961;28;20072;-52
2023/06/01 02:48:44;;;;;;;4.97;1.13;;;;;;;16.54;68.79;101348.59;5021600;28;20041;-51
2023/06/01 02:51:10;;;;;;;2.15;1.10;;;;;;;16.68;68.09;101352.19;5019400;28;20033;-56
2023/06/01 02:53:35;;;;;;;1.08;0.98;;;;;;;16.58;68.63;101349.38;5015808;28;20033;-52
2023/06/01 02:56:04;;;;;;;3.72;1.48;;;;;;;16.58;69.07;101344.75;5020578;28;20043;-55
2023/06/01 02:58:42;;;;;;;1.92;1.25;;;;;;;16.50;69.37;101345.06;5030494;28;20052;-53
2023/06/01 03:01:34;;;;;;;2.63;1.42;;;;;;;16.41;69.40;101345.38;5019840;28;20038;-56
2023/06/01 03:04:03;;;;;;;7.75;1.67;;;;;;;16.41;69.63;101339.13;5024576;28;20476;-54
2023/06/01 03:06:31;;;;;;;4.03;1.75;;;;;;;16.38;70.34;101345.31;5026739;28;20040;-55
2023/06/01 03:09:00;;;;;;;2.38;1.60;;;;;;;16.49;69.55;101336.09;5020288;28;20041;-52
2023/06/01 03:11:54;;;;;;;3.00;1.45;;;;;;;16.50;69.78;101336.91;4969800;28;20042;-53
2023/06/01 03:14:20;;;;;;;1.70;1.08;;;;;;;16.58;69.42;101333.84;5030298;28;20040;-52
2023/06/01 03:16:46;;;;;;;1.52;1.10;;;;;;;16.54;69.10;101324.09;5034491;28;20030;-56
2023/06/01 03:19:20;;;;;;;1.42;1.02;;;;;;;16.48;69.03;101333.75;5023832;28;20028;-55
2023/06/01 03:21:49;;;;;;;1.20;0.93;;;;;;;16.51;69.05;101328.34;5018446;28;20442;-53
2023/06/01 03:24:18;;;;;;;3.33;1.10;;;;;;;16.53;68.12;101317.13;5027133;28;20029;-51
2023/06/01 03:26:44;;;;;;;2.78;0.82;;;;;;;16.46;68.68;101308.88;5025613;28;20033;-54
2023/06/01 03:29:12;;;;;;;1.38;1.23;;;;;;;16.52;68.45;101319.06;5025847;28;20041;-54
2023/06/01 03:31:38;;;;;;;2.38;1.23;;;;;;;16.58;67.69;101317.53;5026719;28;20068;-53
2023/06/01 03:34:03;;;;;;;1.63;0.73;;;;;;;16.48;68.95;101325.59;5024730;28;20033;-50
2023/06/01 03:36:29;;;;;;;1.63;1.17;;;;;;;16.52;68.94;101319.06;5023954;28;20108;-51
2023/06/01 03:38:55;;;;;;;4.00;0.93;;;;;;;16.35;69.10;101318.88;5023123;28;20750;-55
2023/06/01 03:41:23;;;;;;;1.55;1.08;;;;;;;16.43;68.44;101315.06;5027745;28;20129;-53
2023/06/01 03:43:49;;;;;;;1.40;1.00;;;;;;;16.35;68.60;101324.31;5026038;28;20112;-54
2023/06/01 03:46:15;;;;;;;1.60;0.95;;;;;;;16.44;68.66;101327.50;5021678;28;20029;-53
2023/06/01 03:48:41;;;;;;;1.83;1.42;;;;;;;16.48;68.09;101322.88;5023342;28;20044;-50
2023/06/01 03:51:07;;;;;;;1.90;1.30;;;;;;;16.43;68.89;101320.50;5022404;28;20022;-55
2023/06/01 03:53:34;;;;;;;3.60;1.40;;;;;;;16.46;68.99;101315.09;5012350;28;20036;-54
2023/06/01 03:56:20;;;;;;;2.95;1.00;;;;;;;16.40;69.21;101322.03;5030660;28;20029;-52
2023/06/01 03:58:46;;;;;;;1.10;0.90;;;;;;;16.33;69.96;101313.84;4954092;28;20049;-51
2023/06/01 04:01:16;;;;;;;1.55;1.13;;;;;;;16.38;69.73;101301.81;4949285;28;20035;-53
2023/06/01 04:03:43;;;;;;;1.10;1.00;;;;;;;16.56;69.06;101311.69;4950794;28;20073;-51
2023/06/01 04:06:12;;;;;;;2.20;1.45;;;;;;;16.44;69.22;101300.31;4967771;28;20037;-53
2023/06/01 04:08:48;;;;;;;6.15;2.03;;;;;;;16.51;69.44;101311.28;4950698;28;20112;-51
2023/06/01 04:11:14;;;;;;;0.95;0.75;;;;;;;16.52;69.29;101301.94;4950650;28;20038;-52
2023/06/01 04:13:40;;;;;;;1.95;1.05;;;;;;;16.58;69.00;101309.38;4947044;28;20085;-52
2023/06/01 04:16:06;;;;;;;4.95;0.70;;;;;;;16.58;69.15;101297.72;4962850;28;20514;-52
2023/06/01 04:18:33;;;;;;;0.63;0.63;;;;;;;16.55;68.73;101312.09;4961755;28;20070;-53
2023/06/01 04:21:00;;;;;;;2.45;0.90;;;;;;;16.52;68.13;101308.19;4956825;28;20039;-50
2023/06/01 04:23:26;;;;;;;1.35;1.05;;;;;;;16.70;67.08;101303.63;4942616;28;20042;-50
2023/06/01 04:25:52;;;;;;;1.05;0.85;;;;;;;16.49;67.50;101302.72;4963296;28;20039;-49
2023/06/01 04:28:20;;;;;;;1.63;0.93;;;;;;;16.43;68.44;101309.63;4948632;28;20498;-49
2023/06/01 04:30:51;;;;;;;1.52;0.85;;;;;;;16.49;68.00;101308.91;4961658;28;20053;-50
2023/06/01 04:33:17;;;;;;;1.85;1.15;;;;;;;16.65;67.87;101305.91;4954790;28;20366;-49
2023/06/01 04:35:43;;;;;;;2.72;1.30;;;;;;;16.53;68.10;101309.72;4976786;28;20045;-49
2023/06/01 04:38:12;;;;;;;2.40;1.33;;;;;;;16.59;68.45;101307.44;5019860;28;20086;-50
2023/06/01 04:40:38;;;;;;;1.83;1.00;;;;;;;16.48;68.50;101306.56;5026344;28;20042;-50
2023/06/01 04:43:04;;;;;;;1.92;1.23;;;;;;;16.62;67.75;101306.69;5033076;28;20040;-51
2023/06/01 04:45:30;;;;;;;2.70;1.05;;;;;;;16.54;68.18;101302.34;5015221;28;20033;-50
2023/06/01 04:47:57;;;;;;;2.25;1.20;;;;;;;16.63;67.92;101300.06;5019858;28;20098;-52
2023/06/01 04:50:52;;;;;;;3.72;1.33;;;;;;;16.67;67.05;101303.59;5001662;28;20566;-55
2023/06/01 04:53:20;;;;;;;0.75;0.50;;;;;;;16.45;68.42;101305.38;5021138;28;20034;-55
2023/06/01 04:55:49;;;;;;;1.77;0.75;;;;;;;16.46;69.13;101303.44;5018655;28;20183;-51
2023/06/01 04:58:15;;;;;;;4.70;0.70;;;;;;;16.57;68.76;101298.88;5014266;28;21818;-51
2023/06/01 05:00:41;;;;;;;3.78;0.90;;;;;;;16.59;69.04;101291.13;5002505;28;20033;-49
2023/06/01 05:03:07;;;;;;;1.25;0.70;;;;;;;16.57;69.68;101285.28;5018485;28;20021;-49
2023/06/01 05:05:33;;;;;;;1.15;0.80;;;;;;;16.62;70.04;101287.66;5017277;28;20025;-52
2023/06/01 05:07:59;;;;;;;1.02;0.73;;;;;;;16.73;69.09;101286.53;5013408;28;20034;-52
2023/06/01 05:10:24;;;;;;;0.57;0.43;;;;;;;16.79;68.63;101286.97;5018399;28;20182;-49
2023/06/01 05:12:50;;;;;;;0.80;0.68;;;;;;;16.92;67.69;101280.00;5022517;28;20044;-52
2023/06/01 05:15:17;;;;;;;0.93;0.68;;;;;;;16.97;67.74;101279.66;5013498;28;20039;-53
2023/06/01 05:17:43;;;;;;;1.95;0.68;;;;;;;16.93;67.36;101279.66;5015399;28;20034;-52
2023/06/01 05:20:12;;;;;;;1.63;0.80;;;;;;;16.87;67.09;101277.66;5010320;28;20041;-49
2023/06/01 05:22:41;;;;;;;1.70;0.50;;;;;;;16.76;67.43;101282.28;5024368;28;20036;-52
2023/06/01 05:25:07;;;;;;;1.42;0.70;;;;;;;16.77;67.94;101272.94;4999821;28;20034;-50
2023/06/01 05:27:32;;;;;;;2.85;1.17;;;;;;;16.74;67.90;101273.72;5016270;28;20030;-52
2023/06/01 05:29:58;;;;;;;3.30;0.82;;;;;;;16.82;67.70;101278.03;5022807;28;20033;-50
2023/06/01 05:32:23;;;;;;;1.00;0.70;;;;;;;16.77;68.17;101270.22;5022638;28;20057;-54
2023/06/01 05:34:49;;;;;;;0.90;0.35;;;;;;;16.84;67.66;101276.47;5010632;28;20064;-51
2023/06/01 05:37:16;;;;;;;2.88;0.68;;;;;;;16.87;66.85;101274.94;5012967;28;20037;-56
2023/06/01 05:39:42;;;;;;;1.50;0.85;;;;;;;16.75;67.16;101280.72;5020417;28;20447;-53
2023/06/01 05:42:08;;;;;;;3.08;0.75;;;;;;;16.67;67.80;101277.19;5014511;28;20503;-51
2023/06/01 05:44:36;;;;;;;2.08;0.82;;;;;;;16.62;68.70;101279.47;5024275;28;20116;-52
2023/06/01 05:47:02;;;;;;;1.15;0.70;;;;;;;16.80;67.77;101270.25;5013449;28;20112;-52
2023/06/01 05:49:31;;;;;;;1.10;0.68;;;;;;;16.83;67.61;101266.00;5019076;28;20091;-48
2023/06/01 05:52:00;;;;;;;2.22;1.35;;;;;;;16.92;67.72;101264.47;5017982;28;20087;-51
2023/06/01 05:54:27;;;;;;;2.23;1.03;;;;;;;16.99;67.57;101267.22;5010729;28;20036;-50
2023/06/01 05:57:13;;;;;;;1.75;0.75;;;;;;;17.17;66.75;101275.44;5007070;28;20025;-52
2023/06/01 05:59:38;;;;;;;0.90;0.50;;;;;;;17.10;66.31;101268.06;4947760;28;20043;-50
2023/06/01 06:02:04;;;;;;;0.68;0.60;;;;;;;17.20;65.86;101260.31;4930342;28;20057;-52
2023/06/01 06:04:30;;;;;;;0.85;0.50;;;;;;;17.20;66.04;101263.81;4963484;28;20090;-52
2023/06/01 06:06:55;;;;;;;0.65;0.52;;;;;;;17.22;65.90;101268.88;4965191;28;20038;-51
2023/06/01 06:09:21;;;;;;;0.75;0.40;;;;;;;17.14;66.11;101274.28;4964158;28;20121;-51
2023/06/01 06:11:46;;;;;;;3.33;0.90;;;;;;;17.08;66.70;101275.03;4966123;28;20141;-51
2023/06/01 06:14:13;;;;;;;0.68;0.57;;;;;;;17.15;66.74;101275.84;4966859;28;20041;-50
2023/06/01 06:16:39;;;;;;;1.88;0.82;;;;;;;17.19;66.35;101269.66;4939117;28;20071;-53
2023/06/01 06:19:05;;;;;;;3.30;1.13;;;;;;;17.19;67.13;101264.19;4961751;28;20053;-50
2023/06/01 06:21:31;;;;;;;1.42;0.82;;;;;;;17.16;67.60;101271.19;4960107;28;20043;-51
2023/06/01 06:23:58;;;;;;;0.90;0.68;;;;;;;17.23;67.46;101276.66;4963125;28;20077;-49
2023/06/01 06:26:26;;;;;;;2.08;0.82;;;;;;;17.27;66.41;101272.00;4955033;28;20066;-51
2023/06/01 06:28:52;;;;;;;2.88;0.70;;;;;;;17.26;66.08;101278.63;4965886;28;20042;-51
2023/06/01 06:31:17;;;;;;;1.50;0.50;;;;;;;17.15;66.06;101280.50;4965880;28;20121;-51
2023/06/01 06:33:43;;;;;;;0.52;0.35;;;;;;;17.23;66.21;101270.44;4964509;28;20039;-52
2023/06/01 06:36:08;;;;;;;2.17;0.68;;;;;;;17.29;66.31;101280.56;4983473;28;20029;-53
2023/06/01 06:38:34;;;;;;;1.67;0.70;;;;;;;17.24;67.04;101277.44;5020277;28;20041;-51
2023/06/01 06:40:59;;;;;;;3.40;1.45;;;;;;;17.40;65.53;101278.63;5020742;28;20030;-54
2023/06/01 06:43:25;;;;;;;1.77;0.57;;;;;;;17.40;64.65;101278.63;5018607;28;20377;-53
2023/06/01 06:45:51;;;;;;;1.00;0.45;;;;;;;17.32;64.51;101279.00;5015522;28;20419;-53
2023/06/01 06:48:16;;;;;;;5.68;1.00;;;;;;;17.28;65.04;101275.50;5022155;28;20065;-50
2023/06/01 06:50:44;;;;;;;0.25;0.22;;;;;;;17.13;65.69;101282.81;5020905;28;20491;-49
2023/06/01 06:53:10;;;;;;;2.97;0.60;;;;;;;17.25;65.78;101276.28;5021326;28;20041;-49
2023/06/01 06:55:35;;;;;;;0.47;0.38;;;;;;;17.29;65.96;101269.66;5021524;28;20048;-52
2023/06/01 06:58:01;;;;;;;0.57;0.35;;;;;;;17.38;66.64;101274.75;5008187;28;20034;-50
2023/06/01 07:00:27;;;;;;;1.92;0.85;;;;;;;17.50;65.88;101269.00;5024938;28;20029;-53
2023/06/01 07:02:52;;;;;;;0.93;0.70;;;;;;;17.59;64.53;101272.09;5024616;28;20041;-51
2023/06/01 07:05:18;;;;;;;1.27;0.70;;;;;;;17.73;63.79;101272.13;5023297;28;20069;-50
2023/06/01 07:07:44;;;;;;;1.17;0.30;;;;;;;17.73;63.27;101267.44;5019844;28;20053;-50
2023/06/01 07:10:10;;;;;;;1.10;0.57;;;;;;;17.46;64.79;101268.16;5027782;28;20029;-54
2023/06/01 07:12:35;;;;;;;0.70;0.50;;;;;;;17.55;64.87;101274.84;5022462;28;20039;-49
2023/06/01 07:15:02;;;;;;;1.48;1.02;;;;;;;17.66;65.12;101275.63;5023245;28;20040;-52
2023/06/01 07:17:27;;;;;;;1.15;0.60;;;;;;;17.70;65.19;101273.69;5018809;28;20447;-50
2023/06/01 07:19:52;;;;;;;0.47;0.32;;;;;;;17.67;65.92;101271.72;5017755;28;20116;-53
2023/06/01 07:22:20;;;;;;;0.32;0.30;;;;;;;17.80;66.19;101269.41;5019602;28;20477;-55
2023/06/01 07:24:47;;;;;;;1.45;0.70;;;;;;;17.96;63.47;101278.75;5025642;28;20399;-55
2023/06/01 07:27:13;;;;;;;0.40;0.40;;;;;;;17.92;63.84;101272.50;5017661;28;20380;-53
2023/06/01 07:29:39;;;;;;;2.25;0.75;;;;;;;17.99;64.02;101264.34;5019092;28;20487;-54
2023/06/01 07:32:06;;;;;;;0.98;0.75;;;;;;;17.93;64.79;101276.81;5021414;28;20536;-54
2023/06/01 07:34:33;;;;;;;1.70;0.45;;;;;;;17.96;64.69;101275.25;5025925;28;20033;-55
2023/06/01 07:36:59;;;;;;;1.02;0.70;;;;;;;18.10;64.04;101274.50;5022062;28;20034;-55
2023/06/01 07:39:25;;;;;;;2.38;0.40;;;;;;;18.14;63.59;101265.13;5026885;28;20060;-54
2023/06/01 07:41:53;;;;;;;0.70;0.40;;;;;;;18.25;63.25;101268.63;5020369;28;20036;-55
2023/06/01 07:44:19;;;;;;;0.45;0.32;;;;;;;18.19;63.61;101267.47;5020579;28;20041;-51
2023/06/01 07:46:45;;;;;;;0.57;0.57;;;;;;;18.38;62.64;101274.44;5025574;28;20041;-53
2023/06/01 07:49:13;;;;;;;1.60;1.15;;;;;;;18.34;63.27;101268.22;5025612;28;20032;-56
2023/06/01 07:51:40;;;;;;;1.67;1.05;;;;;;;18.51;62.57;101261.97;5023355;28;20121;-50
2023/06/01 07:54:05;;;;;;;0.57;0.43;;;;;;;18.46;62.53;101271.34;5018925;28;20034;-53
2023/06/01 07:56:31;;;;;;;0.85;0.50;;;;;;;18.69;60.92;101274.41;5025492;28;20112;-55
2023/06/01 07:58:56;;;;;;;2.85;0.80;;;;;;;18.65;60.21;101270.91;5017524;28;20060;-53
2023/06/01 08:01:42;;;;;;;0.93;0.50;;;;;;;18.67;60.11;101276.75;5018303;28;20052;-53
2023/06/01 08:04:08;;;;;;;2.38;0.60;;;;;;;18.85;59.96;101277.47;4934354;28;20075;-55
2023/06/01 08:06:38;;;;;;;2.78;0.40;;;;;;;18.78;60.07;101274.00;4946043;29;20082;-55
2023/06/01 08:09:04;;;;;;;2.65;0.88;;;;;;;18.68;59.98;101274.78;4946725;28;20043;-55
2023/06/01 08:11:29;;;;;;;3.50;0.88;;;;;;;18.73;60.11;101282.59;4942698;29;20035;-53
2023/06/01 08:13:55;;;;;;;0.80;0.63;;;;;;;18.83;60.50;101279.06;4940489;28;20509;-56
2023/06/01 08:16:20;;;;;;;2.60;0.60;;;;;;;18.86;60.17;101273.59;4944266;28;20414;-53
2023/06/01 08:18:46;;;;;;;0.85;0.40;;;;;;;18.84;61.50;101266.94;4942607;28;20052;-51
2023/06/01 08:21:11;;;;;;;4.10;0.98;;;;;;;18.75;62.43;101272.06;4939887;29;20055;-52
2023/06/01 08:23:37;;;;;;;0.98;0.30;;;;;;;18.99;61.16;101271.19;4947612;28;20122;-54
2023/06/01 08:26:23;;;;;;;2.58;0.70;;;;;;;18.96;60.62;101276.66;4924551;29;20063;-52
2023/06/01 08:28:52;;;;;;;0.85;0.50;;;;;;;18.98;59.76;101268.84;4892445;29;20045;-53
2023/06/01 08:31:41;;;;;;;3.08;0.82;;;;;;;18.96;59.74;101280.16;4890764;29;20077;-53
2023/06/01 08:34:07;;;;;;;0.40;0.40;;;;;;;19.03;58.88;101271.94;4853268;29;20049;-51
2023/06/01 08:36:32;;;;;;;2.50;0.80;;;;;;;19.08;58.34;101273.50;4853413;29;20127;-56
2023/06/01 08:38:58;;;;;;;2.10;0.75;;;;;;;19.11;58.41;101272.69;4853762;29;21472;-49
2023/06/01 08:41:40;;;;;;;1.13;0.65;;;;;;;19.11;58.45;101270.75;4881921;29;20055;-51
2023/06/01 08:44:08;;;;;;;0.40;0.40;;;;;;;18.97;59.58;101272.75;4903935;29;20032;-51
2023/06/01 08:46:36;;;;;;;0.73;0.43;;;;;;;19.13;59.28;101249.28;4908876;29;20050;-53
2023/06/01 08:49:02;;;;;;;0.70;0.50;;;;;;;19.16;59.26;101275.03;4899580;29;20062;-51
2023/06/01 08:51:28;;;;;;;1.45;0.40;;;;;;;19.15;59.68;101257.06;4909901;29;20051;-55
2023/06/01 08:53:57;;;;;;;1.90;0.85;;;;;;;19.30;58.97;101267.53;4908413;29;20423;-51
2023/06/01 08:56:23;;;;;;;0.43;0.43;;;;;;;19.36;58.15;101268.69;4911199;29;20440;-53
2023/06/01 08:58:50;;;;;;;2.05;0.63;;;;;;;19.18;58.22;101259.00;4911273;29;20107;-51
2023/06/01 09:01:21;;;;;;;4.95;0.60;;;;;;;19.19;59.02;101258.63;4907973;29;20044;-51
2023/06/01 09:03:51;;;;;;;0.40;0.30;;;;;;;19.32;58.29;101262.47;4908923;29;20047;-52
2023/06/01 09:06:17;;;;;;;0.38;0.30;;;;;;;19.11;58.90;101264.50;4961335;28;20141;-54
2023/06/01 09:08:44;;;;;;;1.00;0.40;;;;;;;19.27;59.07;101256.63;4984825;28;20140;-52
2023/06/01 09:11:10;;;;;;;1.90;0.80;;;;;;;19.22;58.92;101251.59;4996740;28;20069;-51
2023/06/01 09:13:40;;;;;;;0.93;0.52;;;;;;;19.13;59.36;101254.75;5027685;28;20154;-54
2023/06/01 09:16:06;;;;;;;3.00;0.70;;;;;;;19.37;59.90;101264.78;5029476;28;20114;-53
2023/06/01 09:18:31;;;;;;;2.40;0.77;;;;;;;19.51;59.71;101258.47;5018866;28;20496;-51
2023/06/01 09:21:15;;;;;;;1.40;0.57;;;;;;;19.47;58.61;101254.97;5023341;28;20087;-53
2023/06/01 09:23:44;;;;;;;1.90;0.80;;;;;;;19.66;56.99;101255.25;5025285;28;20381;-52
2023/06/01 09:26:13;;;;;;;1.17;0.60;;;;;;;19.58;57.73;101259.19;5023050;28;20033;-49
2023/06/01 09:28:56;;;;;;;0.20;0.20;;;;;;;19.64;58.15;101257.59;5016191;28;20044;-56
2023/06/01 09:31:48;;;;;;;0.77;0.32;;;;;;;19.65;58.15;101247.41;5025859;28;20040;-55
2023/06/01 09:34:18;;;;;;;0.43;0.40;;;;;;;19.68;59.12;101255.63;5014246;28;20091;-52
2023/06/01 09:36:45;;;;;;;1.85;0.60;;;;;;;19.74;58.40;101264.91;5016096;28;20124;-52
2023/06/01 09:39:13;;;;;;;0.40;0.35;;;;;;;19.75;57.57;101258.28;5023554;28;20026;-51
2023/06/01 09:41:48;;;;;;;0.73;0.43;;;;;;;19.62;57.93;101254.50;5021447;28;20036;-54
2023/06/01 09:44:15;;;;;;;2.88;0.65;;;;;;;19.81;57.53;101255.91;5027168;28;20029;-53
2023/06/01 09:46:54;;;;;;;0.68;0.50;;;;;;;19.94;57.52;101251.50;5020780;28;20400;-51
2023/06/01 09:49:24;;;;;;;0.60;0.50;;;;;;;20.04;57.35;101247.88;5009634;28;20657;-48
2023/06/01 09:51:53;;;;;;;1.02;0.52;;;;;;;20.04;57.49;101255.31;5021651;28;20111;-51
2023/06/01 09:54:43;;;;;;;0.35;0.35;;;;;;;20.03;57.19;101249.09;5020503;28;20034;-49
2023/06/01 09:57:09;;;;;;;2.05;0.85;;;;;;;20.00;57.28;101252.63;4973639;28;20446;-54
2023/06/01 09:59:45;;;;;;;0.82;0.63;;;;;;;20.03;56.29;101251.03;4981884;28;20078;-51
2023/06/01 10:02:16;;;;;;;0.85;0.40;;;;;;;19.93;56.19;101252.69;4980321;28;20127;-53
2023/06/01 10:04:47;;;;;;;1.35;0.50;;;;;;;19.93;54.74;101247.22;4971018;28;20027;-53
2023/06/01 10:07:13;;;;;;;0.70;0.65;;;;;;;19.54;55.49;101246.72;4976680;28;20077;-52
2023/06/01 10:09:41;;;;;;;0.65;0.43;;;;;;;19.48;57.24;101245.59;4979959;28;20142;-51
2023/06/01 10:12:08;;;;;;;0.28;0.20;;;;;;;19.78;56.10;101249.28;4978090;28;20108;-52
2023/06/01 10:14:37;;;;;;;0.65;0.50;;;;;;;19.85;56.05;101242.97;4982813;28;20046;-50
2023/06/01 10:17:03;;;;;;;4.53;0.52;;;;;;;20.04;54.93;101244.38;4972970;28;20355;-50
2023/06/01 10:19:30;;;;;;;1.63;0.55;;;;;;;20.21;54.17;101233.28;4985289;28;20113;-52
2023/06/01 10:21:59;;;;;;;2.05;1.30;;;;;;;20.08;54.86;101243.16;4983090;28;20487;-50
2023/06/01 10:24:26;;;;;;;2.70;1.00;;;;;;;20.08;54.88;101229.50;4978415;28;20425;-53
2023/06/01 10:26:58;;;;;;;2.63;0.40;;;;;;;20.38;54.78;101229.59;4974880;28;20049;-50
2023/06/01 10:29:24;;;;;;;0.52;0.52;;;;;;;20.55;54.10;101228.66;4969361;28;20114;-51
2023/06/01 10:31:51;;;;;;;1.08;0.68;;;;;;;20.59;53.24;101231.34;4971802;28;20030;-53
2023/06/01 10:34:36;;;;;;;1.10;0.68;;;;;;;20.61;53.29;101237.94;4994856;28;20053;-54
2023/06/01 10:37:02;;;;;;;0.98;0.75;;;;;;;20.65;52.72;101235.94;5017731;28;20040;-53
2023/06/01 10:39:32;;;;;;;1.85;0.80;;;;;;;20.67;52.89;101224.63;5028105;28;20450;-52
2023/06/01 10:42:18;;;;;;;0.47;0.47;;;;;;;20.87;52.91;101227.47;5021980;28;20035;-53
2023/06/01 10:44:44;;;;;;;0.60;0.60;;;;;;;21.25;52.38;101237.19;5012587;28;20092;-53
2023/06/01 10:47:12;;;;;;;0.73;0.40;;;;;;;21.38;51.74;101228.00;5017917;28;20017;-55
2023/06/01 10:49:47;;;;;;;3.03;0.55;;;;;;;21.44;52.27;101220.84;5010775;28;20500;-55
2023/06/01 10:52:34;;;;;;;0.70;0.55;;;;;;;21.50;51.79;101221.91;5011208;28;20083;-50
2023/06/01 10:55:13;;;;;;;1.27;0.28;;;;;;;21.24;53.02;101221.94;5023583;28;20064;-54
2023/06/01 10:57:39;;;;;;;0.68;0.50;;;;;;;21.52;52.15;101230.50;5023545;28;20046;-52
2023/06/01 11:00:27;;;;;;;0.50;0.43;;;;;;;21.26;52.41;101214.84;5009984;28;20029;-55
2023/06/01 11:02:58;;;;;;;1.00;0.63;;;;;;;21.12;53.14;101220.53;5017790;28;20045;-53
2023/06/01 11:05:53;;;;;;;1.75;0.45;;;;;;;21.19;53.04;101220.44;5020795;28;20026;-54
2023/06/01 11:08:19;;;;;;;0.43;0.40;;;;;;;21.09;53.07;101229.56;5009275;28;20056;-51
2023/06/01 11:10:50;;;;;;;1.33;0.70;;;;;;;20.98;53.40;101228.88;5022940;28;20025;-49
2023/06/01 11:13:21;;;;;;;1.20;0.77;;;;;;;20.98;53.39;101228.88;5020764;28;20124;-55
2023/06/01 11:16:06;;;;;;;3.20;0.50;;;;;;;20.96;53.67;101214.84;5016007;28;20069;-54
2023/06/01 11:18:59;;;;;;;0.65;0.40;;;;;;;21.06;52.78;101218.66;5025811;28;20041;-54
2023/06/01 11:21:37;;;;;;;3.35;0.30;;;;;;;21.14;52.59;101218.16;5019227;28;20032;-53
2023/06/01 11:24:12;;;;;;;2.30;0.65;;;;;;;21.13;51.82;101215.81;5038039;22;20052;-56
2023/06/01 11:26:44;;;;;;;0.47;0.38;;;;;;;21.11;52.62;101210.75;5039426;28;20037;-57
2023/06/01 11:29:22;;;;;;;1.13;0.73;;;;;;;21.49;51.43;101211.38;5040369;28;20439;-51
2023/06/01 11:31:56;;;;;;;1.50;0.63;;;;;;;21.70;51.18;101222.00;5032388;28;20764;-55
2023/06/01 11:34:41;;;;;;;0.57;0.40;;;;;;;22.01;50.13;101209.75;5037296;28;20029;-53